createdAt,value
2023-04-02T00:01:23.192Z,4.60
2023-04-02T00:04:03.598Z,3.33
2023-04-02T00:06:39.507Z,2.20
2023-04-02T00:09:32.818Z,2.22
2023-04-02T00:12:15.347Z,2.50
2023-04-02T00:14:52.727Z,2.15
2023-04-02T00:17:24.103Z,2.25
2023-04-02T00:20:05.788Z,1.02
2023-04-02T00:22:33.507Z,1.00
2023-04-02T00:25:07.958Z,0.90
2023-04-02T00:27:36.079Z,1.48
2023-04-02T00:30:03.776Z,1.77
2023-04-02T00:32:33.187Z,2.30
2023-04-02T00:35:00.844Z,1.88
2023-04-02T00:37:38.124Z,1.40
2023-04-02T00:40:22.108Z,1.33
2023-04-02T00:42:51.620Z,1.10
2023-04-02T00:45:29.332Z,0.85
2023-04-02T00:48:00.553Z,0.82
2023-04-02T00:50:39.192Z,0.80
2023-04-02T00:53:25.362Z,1.10
2023-04-02T00:55:53.651Z,0.95
2023-04-02T00:58:35.955Z,0.90
2023-04-02T01:01:04.001Z,1.17
2023-04-02T01:03:35.939Z,1.52
2023-04-02T01:06:15.085Z,1.60
2023-04-02T01:09:00.965Z,1.30
2023-04-02T01:11:46.600Z,1.10
2023-04-02T01:14:36.024Z,1.40
2023-04-02T01:17:17.795Z,1.30
2023-04-02T01:20:23.571Z,0.90
2023-04-02T01:23:12.832Z,0.90
2023-04-02T01:29:02.387Z,1.20
2023-04-02T01:31:32.559Z,1.70
2023-04-02T01:34:01.782Z,0.82
2023-04-02T01:36:38.067Z,1.23
2023-04-02T01:39:46.477Z,2.70
2023-04-02T01:42:20.674Z,4.47
2023-04-02T01:45:00.350Z,3.95
2023-04-02T01:47:29.095Z,5.88
2023-04-02T01:50:04.197Z,7.72
2023-04-02T01:52:44.509Z,7.82
2023-04-02T01:55:18.383Z,4.07
2023-04-02T01:57:51.454Z,4.15
2023-04-02T02:00:21.809Z,3.40
2023-04-02T02:02:53.566Z,4.88
2023-04-02T02:05:22.662Z,4.80
2023-04-02T02:07:54.042Z,4.18
2023-04-02T02:10:34.875Z,4.13
2023-04-02T02:13:03.631Z,5.47
2023-04-02T02:15:33.587Z,5.30
2023-04-02T02:18:05.929Z,5.07
2023-04-02T02:20:35.585Z,3.53
2023-04-02T02:23:03.816Z,2.38
2023-04-02T02:25:35.532Z,2.80
2023-04-02T02:28:15.337Z,3.83
2023-04-02T02:31:00.779Z,12.07
2023-04-02T02:33:43.373Z,18.52
2023-04-02T02:36:48.532Z,19.17
2023-04-02T02:39:22.711Z,17.50
2023-04-02T02:42:00.279Z,16.38
2023-04-02T02:44:34.613Z,13.07
2023-04-02T02:47:14.764Z,12.43
2023-04-02T02:49:53.491Z,11.85
2023-04-02T02:52:27.853Z,10.38
2023-04-02T02:55:17.589Z,11.88
2023-04-02T02:57:59.434Z,11.95
2023-04-02T03:00:31.411Z,13.65
2023-04-02T03:03:03.935Z,2.20
2023-04-02T03:05:33.105Z,1.55
2023-04-02T03:08:18.531Z,0.60
2023-04-02T03:11:00.553Z,1.10
2023-04-02T03:13:32.635Z,0.47
2023-04-02T03:16:37.976Z,0.93
2023-04-02T03:19:41.655Z,0.77
2023-04-02T03:22:39.362Z,1.45
2023-04-02T03:25:46.293Z,1.42
2023-04-02T03:28:20.440Z,3.53
2023-04-02T03:30:59.918Z,3.05
2023-04-02T03:33:38.882Z,7.88
2023-04-02T03:36:25.243Z,8.90
2023-04-02T03:39:14.549Z,9.75
2023-04-02T03:41:51.254Z,8.35
2023-04-02T03:44:53.828Z,7.75
2023-04-02T03:47:44.670Z,7.75
2023-04-02T03:50:19.055Z,6.70
2023-04-02T03:52:47.348Z,7.45
2023-04-02T03:55:29.538Z,11.88
2023-04-02T03:58:22.613Z,13.27
2023-04-02T04:01:16.806Z,10.15
2023-04-02T04:03:52.811Z,9.18
2023-04-02T04:06:29.015Z,8.65
2023-04-02T04:09:09.331Z,13.38
2023-04-02T04:11:43.820Z,11.57
2023-04-02T04:14:36.707Z,10.02
2023-04-02T04:17:13.331Z,11.05
2023-04-02T04:19:54.382Z,10.52
2023-04-02T04:22:32.025Z,7.28
2023-04-02T04:25:29.543Z,4.75
2023-04-02T04:28:27.156Z,5.50
2023-04-02T04:31:30.231Z,4.70
2023-04-02T04:34:04.970Z,6.80
2023-04-02T04:36:53.929Z,6.43
2023-04-02T04:39:55.851Z,7.38
2023-04-02T04:42:30.449Z,6.25
2023-04-02T04:45:42.932Z,6.70
2023-04-02T04:48:40.921Z,5.95
2023-04-02T04:51:35.647Z,6.70
2023-04-02T04:54:03.607Z,5.82
2023-04-02T04:56:34.313Z,6.38
2023-04-02T04:59:42.226Z,4.20
2023-04-02T05:02:24.373Z,5.00
2023-04-02T05:04:52.778Z,3.90
2023-04-02T05:07:35.989Z,4.00
2023-04-02T05:10:27.096Z,2.72
2023-04-02T05:13:05.091Z,4.93
2023-04-02T05:16:03.042Z,2.35
2023-04-02T05:19:39.703Z,5.78
2023-04-02T05:22:35.779Z,1.38
2023-04-02T05:25:24.320Z,1.20
2023-04-02T05:28:31.483Z,2.38
2023-04-02T05:31:11.465Z,4.47
2023-04-02T05:33:44.845Z,5.05
2023-04-02T05:36:24.468Z,2.05
2023-04-02T05:38:58.640Z,3.53
2023-04-02T05:41:46.838Z,5.30
2023-04-02T05:44:38.527Z,9.27
2023-04-02T05:47:22.236Z,8.05
2023-04-02T05:50:12.598Z,8.73
2023-04-02T05:53:32.980Z,6.43
2023-04-02T05:56:23.053Z,4.65
2023-04-02T05:59:14.781Z,4.15
2023-04-02T06:02:02.620Z,3.38
2023-04-02T06:05:01.550Z,2.20
2023-04-02T06:07:42.201Z,2.17
2023-04-02T06:10:29.300Z,3.83
2023-04-02T06:13:18.089Z,2.63
2023-04-02T06:15:47.931Z,3.08
2023-04-02T06:18:32.896Z,3.65
2023-04-02T06:21:01.244Z,1.77
2023-04-02T06:23:42.944Z,2.30
2023-04-02T06:26:51.530Z,1.27
2023-04-02T06:29:39.480Z,3.08
2023-04-02T06:32:11.572Z,1.00
2023-04-02T06:34:42.809Z,1.48
2023-04-02T06:37:31.454Z,0.90
2023-04-02T06:40:39.110Z,2.42
2023-04-02T06:43:32.724Z,1.38
2023-04-02T06:46:52.579Z,3.25
2023-04-02T06:49:45.424Z,1.58
2023-04-02T06:52:37.843Z,0.80
2023-04-02T06:55:43.655Z,0.80
2023-04-02T06:58:11.294Z,1.52
2023-04-02T07:00:46.620Z,0.82
2023-04-02T07:03:30.371Z,0.52
2023-04-02T07:06:02.945Z,0.45
2023-04-02T07:08:31.564Z,0.10
2023-04-02T07:11:00.143Z,1.55
2023-04-02T07:13:27.756Z,0.30
2023-04-02T07:15:55.734Z,0.30
2023-04-02T07:18:32.341Z,0.55
2023-04-02T07:23:29.833Z,0.50
2023-04-02T07:25:57.884Z,0.20
2023-04-02T07:28:26.002Z,0.35
2023-04-02T07:30:53.675Z,0.50
2023-04-02T07:33:25.562Z,0.80
2023-04-02T07:35:55.047Z,0.40
2023-04-02T07:38:22.728Z,1.52
2023-04-02T07:40:50.428Z,2.05
2023-04-02T07:43:17.692Z,1.02
2023-04-02T07:45:45.106Z,1.75
2023-04-02T07:48:14.079Z,1.13
2023-04-02T07:50:41.299Z,1.65
2023-04-02T07:53:33.987Z,0.38
2023-04-02T07:56:03.295Z,2.00
2023-04-02T08:01:01.108Z,0.85
2023-04-02T08:03:29.114Z,1.05
2023-04-02T08:05:58.241Z,0.57
2023-04-02T08:10:54.817Z,0.50
2023-04-02T08:15:49.210Z,1.00
2023-04-02T08:18:16.549Z,1.10
2023-04-02T08:20:43.761Z,4.03
2023-04-02T08:23:17.316Z,2.38
2023-04-02T08:25:45.588Z,1.70
2023-04-02T08:28:13.554Z,1.27
2023-04-02T08:30:41.267Z,1.70
2023-04-02T08:33:08.810Z,3.88
2023-04-02T08:35:36.780Z,3.92
2023-04-02T08:38:04.206Z,2.42
2023-04-02T08:40:40.616Z,6.15
2023-04-02T08:43:23.886Z,4.82
2023-04-02T08:45:54.184Z,2.92
2023-04-02T08:48:22.808Z,1.00
2023-04-02T08:50:50.768Z,1.08
2023-04-02T08:53:26.054Z,0.85
2023-04-02T08:56:39.694Z,0.40
2023-04-02T08:59:23.944Z,0.40
2023-04-02T09:02:29.350Z,1.17
2023-04-02T09:04:59.549Z,1.90
2023-04-02T09:07:28.000Z,0.57
2023-04-02T09:09:57.478Z,0.63
2023-04-02T09:12:32.234Z,0.65
2023-04-02T09:15:28.893Z,1.23
2023-04-02T09:18:16.869Z,0.57
2023-04-02T09:20:45.493Z,1.58
2023-04-02T09:23:25.412Z,0.90
2023-04-02T09:26:04.173Z,0.60
2023-04-02T09:28:31.973Z,0.50
2023-04-02T09:31:37.058Z,0.75
2023-04-02T09:34:31.453Z,0.57
2023-04-02T09:37:22.419Z,0.40
2023-04-02T09:39:49.782Z,0.50
2023-04-02T09:42:37.526Z,0.30
2023-04-02T09:45:24.400Z,0.40
2023-04-02T09:47:53.640Z,0.30
2023-04-02T09:52:49.416Z,0.43
2023-04-02T09:55:18.571Z,0.20
2023-04-02T10:00:32.142Z,0.20
2023-04-02T10:03:26.437Z,0.70
2023-04-02T10:06:15.425Z,0.52
2023-04-02T10:08:45.023Z,1.00
2023-04-02T10:11:46.446Z,0.30
2023-04-02T10:14:39.362Z,0.55
2023-04-02T10:17:32.148Z,1.73
2023-04-02T10:20:10.946Z,0.65
2023-04-02T10:22:39.406Z,1.98
2023-04-02T10:25:20.691Z,2.58
2023-04-02T10:27:59.503Z,1.00
2023-04-02T10:31:17.017Z,3.38
2023-04-02T10:33:50.611Z,0.70
2023-04-02T10:36:55.301Z,0.57
2023-04-02T10:39:47.090Z,1.25
2023-04-02T10:42:48.811Z,0.90
2023-04-02T10:45:48.198Z,0.15
2023-04-02T10:48:40.467Z,0.10
2023-04-02T10:51:30.200Z,0.40
2023-04-02T10:54:30.209Z,0.20
2023-04-02T10:57:12.377Z,0.50
2023-04-02T11:00:10.809Z,0.20
2023-04-02T11:03:39.703Z,0.63
2023-04-02T11:06:32.327Z,1.33
2023-04-02T11:09:10.613Z,0.28
2023-04-02T11:11:44.903Z,0.30
2023-04-02T11:14:24.504Z,0.32
2023-04-02T11:16:55.072Z,0.22
2023-04-02T11:19:27.514Z,0.10
2023-04-02T11:22:06.530Z,0.15
2023-04-02T11:24:51.804Z,0.28
2023-04-02T11:27:27.519Z,0.40
2023-04-02T11:30:17.549Z,0.45
2023-04-02T11:32:48.946Z,0.52
2023-04-02T11:35:31.687Z,0.13
2023-04-02T11:38:10.708Z,0.22
2023-04-02T11:40:46.000Z,1.58
2023-04-02T11:43:32.054Z,0.93
2023-04-02T11:46:05.000Z,1.10
2023-04-02T11:48:36.936Z,0.80
2023-04-02T11:51:22.107Z,1.67
2023-04-02T11:53:52.598Z,0.55
2023-04-02T11:56:21.351Z,3.28
2023-04-02T11:59:14.848Z,0.80
2023-04-02T12:02:00.598Z,0.38
2023-04-02T12:04:54.620Z,1.67
2023-04-02T12:08:19.113Z,0.98
2023-04-02T12:10:57.748Z,0.10
2023-04-02T12:13:58.144Z,0.25
2023-04-02T12:16:30.779Z,0.45
2023-04-02T12:19:00.648Z,0.00
2023-04-02T12:21:29.503Z,0.10
2023-04-02T12:24:01.320Z,0.10
2023-04-02T12:26:38.297Z,0.20
2023-04-02T12:29:26.784Z,0.13
2023-04-02T12:31:59.405Z,0.00
2023-04-02T12:34:29.957Z,0.00
2023-04-02T12:37:04.259Z,0.00
2023-04-02T12:39:34.149Z,0.10
2023-04-02T12:42:01.934Z,0.75
2023-04-02T12:44:30.650Z,0.00
2023-04-02T12:46:58.886Z,0.00
2023-04-02T12:49:39.637Z,0.00
2023-04-02T12:52:17.537Z,0.25
2023-04-02T12:55:05.677Z,0.00
2023-04-02T12:57:40.354Z,0.13
2023-04-02T13:00:23.973Z,0.35
2023-04-02T13:03:17.478Z,0.03
2023-04-02T13:05:53.440Z,0.25
2023-04-02T13:08:40.272Z,0.25
2023-04-02T13:11:07.673Z,0.17
2023-04-02T13:13:38.466Z,0.10
2023-04-02T13:16:14.937Z,0.20
2023-04-02T13:18:45.890Z,0.10
2023-04-02T13:21:16.194Z,0.10
2023-04-02T13:23:45.416Z,0.65
2023-04-02T13:26:21.524Z,0.40
2023-04-02T13:29:21.256Z,0.00
2023-04-02T13:31:49.249Z,0.10
2023-04-02T13:34:17.663Z,0.10
2023-04-02T13:36:46.464Z,1.23
2023-04-02T13:39:14.041Z,0.00
2023-04-02T13:41:45.112Z,0.57
2023-04-02T13:44:33.903Z,0.00
2023-04-02T13:47:01.358Z,0.30
2023-04-02T13:49:29.142Z,0.30
2023-04-02T13:52:05.107Z,0.00
2023-04-02T13:54:50.718Z,0.00
2023-04-02T13:57:18.306Z,0.30
2023-04-02T13:59:45.739Z,0.00
2023-04-02T14:02:19.176Z,0.00
2023-04-02T14:04:51.304Z,0.70
2023-04-02T14:07:35.173Z,1.33
2023-04-02T14:10:25.590Z,1.88
2023-04-02T14:13:03.888Z,2.95
2023-04-02T14:16:01.416Z,3.20
2023-04-02T14:18:52.539Z,6.07
2023-04-02T14:21:51.323Z,3.08
2023-04-02T14:24:46.490Z,10.27
2023-04-02T14:27:22.802Z,4.18
2023-04-02T14:30:22.815Z,11.38
2023-04-02T14:33:04.644Z,2.30
2023-04-02T14:35:42.607Z,0.40
2023-04-02T14:38:16.749Z,0.10
2023-04-02T14:40:49.769Z,0.00
2023-04-02T14:44:12.505Z,0.00
2023-04-02T14:46:41.036Z,0.00
2023-04-02T14:49:42.458Z,0.70
2023-04-02T14:52:16.448Z,0.40
2023-04-02T14:54:51.681Z,0.20
2023-04-02T14:57:32.932Z,0.20
2023-04-02T15:00:20.666Z,0.30
2023-04-02T15:02:59.089Z,0.10
2023-04-02T15:05:41.828Z,0.52
2023-04-02T15:08:41.820Z,0.13
2023-04-02T15:11:38.412Z,0.30
2023-04-02T15:14:28.028Z,0.43
2023-04-02T15:16:55.790Z,0.15
2023-04-02T15:19:23.145Z,0.95
2023-04-02T15:22:21.539Z,0.63
2023-04-02T15:24:57.736Z,0.10
2023-04-02T15:27:40.085Z,0.10
2023-04-02T15:30:38.616Z,0.57
2023-04-02T15:33:27.294Z,0.45
2023-04-02T15:36:28.908Z,0.63
2023-04-02T15:39:17.479Z,1.73
2023-04-02T15:42:38.792Z,0.20
2023-04-02T15:45:11.896Z,0.47
2023-04-02T15:48:28.889Z,0.88
2023-04-02T15:51:12.643Z,0.60
2023-04-02T15:54:20.652Z,3.45
2023-04-02T15:56:58.740Z,0.90
2023-04-02T16:00:14.041Z,0.13
2023-04-02T16:03:26.412Z,0.40
2023-04-02T16:06:17.333Z,1.45
2023-04-02T16:09:06.292Z,0.25
2023-04-02T16:11:33.738Z,0.20
2023-04-02T16:14:22.059Z,0.98
2023-04-02T16:16:52.277Z,0.50
2023-04-02T16:19:33.950Z,0.73
2023-04-02T16:22:16.628Z,0.30
2023-04-02T16:24:48.047Z,0.52
2023-04-02T16:27:30.570Z,39.67
2023-04-02T16:30:37.804Z,1.38
2023-04-02T16:33:11.045Z,0.60
2023-04-02T16:36:20.971Z,1.98
2023-04-02T16:39:28.629Z,1.60
2023-04-02T16:42:21.254Z,2.35
2023-04-02T16:44:51.483Z,2.35
2023-04-02T16:47:44.449Z,2.40
2023-04-02T16:50:30.488Z,1.38
2023-04-02T16:53:41.360Z,0.88
2023-04-02T16:56:40.282Z,1.02
2023-04-02T16:59:32.454Z,0.75
2023-04-02T17:02:25.738Z,1.67
2023-04-02T17:05:01.837Z,0.98
2023-04-02T17:07:46.686Z,1.25
2023-04-02T17:10:30.387Z,1.30
2023-04-02T17:13:17.929Z,1.60
2023-04-02T17:15:59.096Z,1.10
2023-04-02T17:18:26.669Z,1.25
2023-04-02T17:20:57.847Z,1.67
2023-04-02T17:23:28.622Z,2.25
2023-04-02T17:26:16.390Z,2.45
2023-04-02T17:28:45.483Z,2.28
2023-04-02T17:31:24.018Z,1.92
2023-04-02T17:33:51.416Z,1.80
2023-04-02T17:36:49.012Z,1.45
2023-04-02T17:39:41.978Z,5.63
2023-04-02T17:42:30.281Z,4.90
2023-04-02T17:45:42.409Z,12.23
2023-04-02T17:48:33.809Z,23.70
2023-04-02T17:51:48.438Z,13.32
2023-04-02T17:54:49.409Z,7.82
2023-04-02T17:57:32.561Z,4.65
2023-04-02T18:00:27.121Z,3.63
2023-04-02T18:03:00.672Z,2.40
2023-04-02T18:05:38.805Z,2.85
2023-04-02T18:08:52.224Z,3.03
2023-04-02T18:11:42.823Z,3.47
2023-04-02T18:14:35.918Z,5.20
2023-04-02T18:17:30.343Z,4.50
2023-04-02T18:20:20.036Z,3.45
2023-04-02T18:23:11.634Z,3.70
2023-04-02T18:26:13.153Z,9.10
2023-04-02T18:28:58.274Z,24.55
2023-04-02T18:32:00.238Z,15.10
2023-04-02T18:35:00.424Z,12.55
2023-04-02T18:37:39.725Z,7.80
2023-04-02T18:43:38.407Z,8.88
2023-04-02T18:46:36.448Z,7.55
2023-04-02T18:49:41.185Z,5.20
2023-04-02T18:52:17.575Z,3.33
2023-04-02T18:55:30.799Z,3.58
2023-04-02T18:58:17.302Z,7.35
2023-04-02T19:00:46.027Z,14.15
2023-04-02T19:03:46.489Z,14.10
2023-04-02T19:06:23.778Z,14.85
2023-04-02T19:09:07.347Z,15.43
2023-04-02T19:11:35.450Z,12.63
2023-04-02T19:14:12.898Z,15.77
2023-04-02T19:17:19.343Z,14.55
2023-04-02T19:20:43.169Z,13.32
2023-04-02T19:24:00.940Z,14.00
2023-04-02T19:27:27.556Z,13.80
2023-04-02T19:30:04.364Z,16.17
2023-04-02T19:33:10.568Z,9.07
2023-04-02T19:35:55.035Z,7.45
2023-04-02T19:38:46.244Z,10.60
2023-04-02T19:41:19.124Z,11.40
2023-04-02T19:43:47.060Z,11.55
2023-04-02T19:46:14.777Z,12.15
2023-04-02T19:48:56.762Z,12.20
2023-04-02T19:51:24.097Z,8.23
2023-04-02T19:53:51.344Z,8.15
2023-04-02T19:56:18.931Z,11.05
2023-04-02T19:58:46.121Z,11.93
2023-04-02T20:01:14.049Z,9.15
2023-04-02T20:03:41.508Z,11.52
2023-04-02T20:06:08.756Z,11.77
2023-04-02T20:08:36.402Z,12.80
2023-04-02T20:11:05.225Z,10.45
2023-04-02T20:13:33.393Z,5.80
2023-04-02T20:16:03.624Z,6.25
2023-04-02T20:18:32.136Z,4.63
2023-04-02T20:21:05.262Z,3.80
2023-04-02T20:23:33.989Z,2.58
2023-04-02T20:26:02.612Z,2.72
2023-04-02T20:28:30.421Z,2.05
2023-04-02T20:31:13.133Z,2.17
2023-04-02T20:33:40.889Z,2.47
2023-04-02T20:36:12.263Z,2.33
2023-04-02T20:38:39.862Z,2.45
2023-04-02T20:41:09.003Z,3.13
2023-04-02T20:43:39.766Z,3.45
2023-04-02T20:46:08.332Z,2.83
2023-04-02T20:48:38.070Z,3.17
2023-04-02T20:51:08.850Z,4.95
2023-04-02T20:53:37.635Z,6.35
2023-04-02T20:56:11.435Z,5.22
2023-04-02T20:58:40.406Z,4.97
2023-04-02T21:01:19.047Z,4.60
2023-04-02T21:03:46.722Z,3.60
2023-04-02T21:06:20.738Z,3.33
2023-04-02T21:08:49.047Z,4.07
2023-04-02T21:11:17.959Z,3.83
2023-04-02T21:13:45.553Z,3.10
2023-04-02T21:16:19.882Z,3.15
2023-04-02T21:18:50.292Z,3.38
2023-04-02T21:21:19.245Z,3.70
2023-04-02T21:23:46.855Z,3.10
2023-04-02T21:26:17.718Z,3.67
2023-04-02T21:28:45.557Z,3.08
2023-04-02T21:31:20.547Z,2.75
2023-04-02T21:33:51.946Z,3.00
2023-04-02T21:36:21.491Z,2.20
2023-04-02T21:38:58.860Z,1.52
2023-04-02T21:41:38.866Z,1.60
2023-04-02T21:44:08.120Z,2.13
2023-04-02T21:46:38.533Z,1.60
2023-04-02T21:49:09.440Z,1.63
2023-04-02T21:51:38.956Z,1.70
2023-04-02T21:54:07.415Z,2.20
2023-04-02T21:56:38.358Z,2.50
2023-04-02T21:59:07.986Z,3.08
2023-04-02T22:01:45.586Z,4.95
2023-04-02T22:04:32.633Z,4.78
2023-04-02T22:07:00.206Z,5.25
2023-04-02T22:09:27.612Z,5.82
2023-04-02T22:11:59.551Z,5.75
2023-04-02T22:14:28.188Z,4.32
2023-04-02T22:16:55.729Z,3.78
2023-04-02T22:19:23.845Z,4.43
2023-04-02T22:21:52.484Z,5.30
2023-04-02T22:24:23.030Z,4.88
2023-04-02T22:26:50.758Z,4.60
2023-04-02T22:29:18.515Z,3.40
2023-04-02T22:31:45.905Z,2.50
2023-04-02T22:34:13.501Z,2.78
2023-04-02T22:36:40.771Z,1.58
2023-04-02T22:39:09.852Z,2.90
2023-04-02T22:41:37.704Z,2.83
2023-04-02T22:44:04.889Z,3.50
2023-04-02T22:46:32.252Z,3.85
2023-04-02T22:48:59.803Z,3.33
2023-04-02T22:51:28.287Z,3.90
2023-04-02T22:53:56.334Z,3.67
2023-04-02T22:56:28.064Z,3.58
2023-04-02T22:58:55.408Z,3.40
2023-04-02T23:01:33.597Z,3.10
2023-04-02T23:04:00.992Z,3.28
2023-04-02T23:06:28.485Z,2.83
2023-04-02T23:08:56.102Z,2.60
2023-04-02T23:11:27.072Z,2.80
2023-04-02T23:13:56.622Z,3.25
2023-04-02T23:18:53.856Z,4.22
2023-04-02T23:21:21.798Z,4.55
2023-04-02T23:23:49.937Z,5.97
2023-04-02T23:26:26.764Z,4.82
2023-04-02T23:28:54.168Z,4.07
2023-04-02T23:31:22.437Z,3.53
2023-04-02T23:33:51.581Z,2.42
2023-04-02T23:36:26.645Z,2.88
2023-04-02T23:38:57.375Z,3.05
2023-04-02T23:41:26.266Z,3.33
2023-04-02T23:43:55.600Z,2.83
2023-04-02T23:46:24.200Z,2.55
2023-04-02T23:48:52.426Z,3.30
2023-04-02T23:51:20.038Z,3.75
2023-04-02T23:53:49.210Z,2.90
2023-04-02T23:56:18.156Z,2.40
2023-04-02T23:58:45.520Z,3.92
